sensor_id;sensor_type;location;lat;lon;timestamp;pressure;altitude;pressure_sealevel;temperature;humidity
39729;BME280;25402;42.004;23.088;2023-11-19T00:01:29;97403.69;;;1.48;41.15
39729;BME280;25402;42.004;23.088;2023-11-19T00:03:56;97430.66;;;1.54;41.22
39729;BME280;25402;42.004;23.088;2023-11-19T00:06:23;97425.50;;;1.62;40.99
39729;BME280;25402;42.004;23.088;2023-11-19T00:08:51;97436.75;;;1.66;41.16
39729;BME280;25402;42.004;23.088;2023-11-19T00:11:19;97430.13;;;1.60;41.19
39729;BME280;25402;42.004;23.088;2023-11-19T00:13:47;97434.81;;;1.68;41.14
39729;BME280;25402;42.004;23.088;2023-11-19T00:16:13;97448.75;;;1.72;40.96
39729;BME280;25402;42.004;23.088;2023-11-19T00:18:41;97430.34;;;1.68;41.13
39729;BME280;25402;42.004;23.088;2023-11-19T00:21:08;97427.25;;;1.73;41.05
39729;BME280;25402;42.004;23.088;2023-11-19T00:23:36;97454.44;;;1.67;41.03
39729;BME280;25402;42.004;23.088;2023-11-19T00:26:03;97459.56;;;1.70;41.03
39729;BME280;25402;42.004;23.088;2023-11-19T00:28:33;97457.38;;;1.85;40.89
39729;BME280;25402;42.004;23.088;2023-11-19T00:31:00;97445.47;;;1.68;41.04
39729;BME280;25402;42.004;23.088;2023-11-19T00:33:28;97451.47;;;1.81;41.02
39729;BME280;25402;42.004;23.088;2023-11-19T00:35:55;97463.38;;;1.77;40.76
39729;BME280;25402;42.004;23.088;2023-11-19T00:38:22;97472.53;;;1.84;40.74
39729;BME280;25402;42.004;23.088;2023-11-19T00:40:49;97481.59;;;1.72;40.90
39729;BME280;25402;42.004;23.088;2023-11-19T00:43:16;97458.34;;;1.63;40.94
39729;BME280;25402;42.004;23.088;2023-11-19T00:45:49;97473.91;;;1.79;40.63
39729;BME280;25402;42.004;23.088;2023-11-19T00:48:16;97474.44;;;1.73;40.76
39729;BME280;25402;42.004;23.088;2023-11-19T00:50:43;97464.81;;;1.40;41.01
39729;BME280;25402;42.004;23.088;2023-11-19T00:53:11;97466.59;;;1.60;40.81
39729;BME280;25402;42.004;23.088;2023-11-19T00:55:39;97484.00;;;1.54;41.22
39729;BME280;25402;42.004;23.088;2023-11-19T00:58:06;97479.41;;;1.66;40.97
39729;BME280;25402;42.004;23.088;2023-11-19T01:00:33;97479.22;;;1.58;40.84
39729;BME280;25402;42.004;23.088;2023-11-19T01:03:02;97487.63;;;1.74;40.48
39729;BME280;25402;42.004;23.088;2023-11-19T01:05:29;97491.22;;;1.84;40.44
39729;BME280;25402;42.004;23.088;2023-11-19T01:07:56;97481.81;;;1.90;40.22
39729;BME280;25402;42.004;23.088;2023-11-19T01:10:23;97479.56;;;1.85;40.49
39729;BME280;25402;42.004;23.088;2023-11-19T01:12:51;97484.28;;;1.72;40.72
39729;BME280;25402;42.004;23.088;2023-11-19T01:15:18;97488.75;;;1.72;40.60
39729;BME280;25402;42.004;23.088;2023-11-19T01:17:46;97487.38;;;1.56;40.80
39729;BME280;25402;42.004;23.088;2023-11-19T01:20:15;97497.38;;;1.64;41.11
39729;BME280;25402;42.004;23.088;2023-11-19T01:22:42;97496.00;;;1.49;40.72
39729;BME280;25402;42.004;23.088;2023-11-19T01:25:08;97485.16;;;1.82;40.52
39729;BME280;25402;42.004;23.088;2023-11-19T01:27:35;97471.09;;;1.80;40.19
39729;BME280;25402;42.004;23.088;2023-11-19T01:30:02;97473.44;;;1.53;40.81
39729;BME280;25402;42.004;23.088;2023-11-19T01:32:29;97465.88;;;1.69;40.51
39729;BME280;25402;42.004;23.088;2023-11-19T01:34:56;97479.78;;;1.73;40.56
39729;BME280;25402;42.004;23.088;2023-11-19T01:37:25;97506.25;;;1.85;40.35
39729;BME280;25402;42.004;23.088;2023-11-19T01:39:52;97486.81;;;1.42;40.92
39729;BME280;25402;42.004;23.088;2023-11-19T01:42:18;97489.31;;;1.54;40.70
39729;BME280;25402;42.004;23.088;2023-11-19T01:44:56;97502.53;;;1.56;40.61
39729;BME280;25402;42.004;23.088;2023-11-19T01:47:25;97507.44;;;1.60;40.60
39729;BME280;25402;42.004;23.088;2023-11-19T01:49:52;97498.47;;;1.61;40.65
39729;BME280;25402;42.004;23.088;2023-11-19T01:52:20;97494.25;;;1.59;40.49
39729;BME280;25402;42.004;23.088;2023-11-19T01:54:48;97489.78;;;1.39;40.80
39729;BME280;25402;42.004;23.088;2023-11-19T01:57:16;97488.00;;;1.49;40.84
39729;BME280;25402;42.004;23.088;2023-11-19T01:59:43;97505.63;;;1.72;40.62
39729;BME280;25402;42.004;23.088;2023-11-19T02:02:11;97507.06;;;1.65;40.39
39729;BME280;25402;42.004;23.088;2023-11-19T02:04:38;97504.97;;;1.48;40.93
39729;BME280;25402;42.004;23.088;2023-11-19T02:07:06;97515.19;;;1.63;40.43
39729;BME280;25402;42.004;23.088;2023-11-19T02:09:34;97505.03;;;1.57;40.63
39729;BME280;25402;42.004;23.088;2023-11-19T02:12:03;97507.72;;;1.37;41.05
39729;BME280;25402;42.004;23.088;2023-11-19T02:14:30;97494.44;;;1.46;40.65
39729;BME280;25402;42.004;23.088;2023-11-19T02:16:58;97488.59;;;1.52;40.82
39729;BME280;25402;42.004;23.088;2023-11-19T02:19:25;97470.25;;;1.59;40.47
39729;BME280;25402;42.004;23.088;2023-11-19T02:21:52;97475.00;;;1.34;40.79
39729;BME280;25402;42.004;23.088;2023-11-19T02:24:21;97469.94;;;1.52;40.72
39729;BME280;25402;42.004;23.088;2023-11-19T02:26:56;97476.44;;;1.39;41.02
39729;BME280;25402;42.004;23.088;2023-11-19T02:29:27;97489.44;;;1.53;40.81
39729;BME280;25402;42.004;23.088;2023-11-19T02:31:54;97498.47;;;1.73;40.21
39729;BME280;25402;42.004;23.088;2023-11-19T02:34:22;97485.38;;;1.69;40.32
39729;BME280;25402;42.004;23.088;2023-11-19T02:36:48;97510.94;;;1.72;40.46
39729;BME280;25402;42.004;23.088;2023-11-19T02:39:16;97519.63;;;1.74;40.01
39729;BME280;25402;42.004;23.088;2023-11-19T02:41:47;97509.88;;;1.84;40.04
39729;BME280;25402;42.004;23.088;2023-11-19T02:44:16;97498.25;;;1.85;39.87
39729;BME280;25402;42.004;23.088;2023-11-19T02:46:45;97498.41;;;1.93;39.78
39729;BME280;25402;42.004;23.088;2023-11-19T02:49:14;97494.25;;;2.00;39.71
39729;BME280;25402;42.004;23.088;2023-11-19T02:51:41;97495.44;;;1.66;39.91
39729;BME280;25402;42.004;23.088;2023-11-19T02:54:08;97489.06;;;1.37;40.60
39729;BME280;25402;42.004;23.088;2023-11-19T02:56:35;97490.94;;;1.46;40.76
39729;BME280;25402;42.004;23.088;2023-11-19T02:59:04;97486.66;;;1.54;40.08
39729;BME280;25402;42.004;23.088;2023-11-19T03:01:41;97460.78;;;1.24;40.14
39729;BME280;25402;42.004;23.088;2023-11-19T03:04:10;97512.47;;;1.54;40.17
39729;BME280;25402;42.004;23.088;2023-11-19T03:06:46;97503.66;;;1.42;40.46
39729;BME280;25402;42.004;23.088;2023-11-19T03:09:13;97503.97;;;1.39;40.49
39729;BME280;25402;42.004;23.088;2023-11-19T03:11:40;97506.09;;;1.66;40.05
39729;BME280;25402;42.004;23.088;2023-11-19T03:14:07;97514.47;;;1.61;40.26
39729;BME280;25402;42.004;23.088;2023-11-19T03:16:34;97507.13;;;1.54;40.17
39729;BME280;25402;42.004;23.088;2023-11-19T03:19:01;97517.59;;;1.66;40.15
39729;BME280;25402;42.004;23.088;2023-11-19T03:21:31;97514.94;;;1.46;40.26
39729;BME280;25402;42.004;23.088;2023-11-19T03:23:58;97520.56;;;1.31;40.52
39729;BME280;25402;42.004;23.088;2023-11-19T03:26:26;97520.38;;;1.44;40.62
39729;BME280;25402;42.004;23.088;2023-11-19T03:28:53;97524.03;;;1.43;40.42
39729;BME280;25402;42.004;23.088;2023-11-19T03:31:22;97528.75;;;1.19;40.66
39729;BME280;25402;42.004;23.088;2023-11-19T03:33:50;97511.25;;;1.05;40.86
39729;BME280;25402;42.004;23.088;2023-11-19T03:36:17;97507.06;;;1.23;40.74
39729;BME280;25402;42.004;23.088;2023-11-19T03:38:48;97516.34;;;1.08;40.83
39729;BME280;25402;42.004;23.088;2023-11-19T03:41:15;97504.66;;;1.20;40.56
39729;BME280;25402;42.004;23.088;2023-11-19T03:43:42;97511.78;;;1.20;40.92
39729;BME280;25402;42.004;23.088;2023-11-19T03:46:17;97516.47;;;0.95;41.21
39729;BME280;25402;42.004;23.088;2023-11-19T03:48:44;97513.56;;;0.98;41.07
39729;BME280;25402;42.004;23.088;2023-11-19T03:51:11;97507.63;;;1.06;40.93
39729;BME280;25402;42.004;23.088;2023-11-19T03:53:41;97518.41;;;1.05;41.03
39729;BME280;25402;42.004;23.088;2023-11-19T03:56:10;97522.81;;;1.15;40.81
39729;BME280;25402;42.004;23.088;2023-11-19T03:58:38;97516.59;;;1.05;41.00
39729;BME280;25402;42.004;23.088;2023-11-19T04:01:05;97519.69;;;1.10;41.02
39729;BME280;25402;42.004;23.088;2023-11-19T04:03:32;97530.19;;;0.91;41.52
39729;BME280;25402;42.004;23.088;2023-11-19T04:05:59;97537.16;;;1.03;41.37
39729;BME280;25402;42.004;23.088;2023-11-19T04:08:26;97530.28;;;1.00;41.41
39729;BME280;25402;42.004;23.088;2023-11-19T04:10:53;97513.50;;;0.89;41.26
39729;BME280;25402;42.004;23.088;2023-11-19T04:13:21;97534.59;;;1.13;41.11
39729;BME280;25402;42.004;23.088;2023-11-19T04:15:49;97565.06;;;0.88;41.47
39729;BME280;25402;42.004;23.088;2023-11-19T04:18:17;97546.34;;;1.10;41.34
39729;BME280;25402;42.004;23.088;2023-11-19T04:20:44;97544.47;;;0.90;41.61
39729;BME280;25402;42.004;23.088;2023-11-19T04:23:11;97545.66;;;0.97;41.41
39729;BME280;25402;42.004;23.088;2023-11-19T04:25:37;97545.41;;;1.00;41.28
39729;BME280;25402;42.004;23.088;2023-11-19T04:28:05;97535.97;;;1.07;41.14
39729;BME280;25402;42.004;23.088;2023-11-19T04:30:32;97544.19;;;1.36;40.99
39729;BME280;25402;42.004;23.088;2023-11-19T04:32:59;97547.53;;;1.17;40.95
39729;BME280;25402;42.004;23.088;2023-11-19T04:35:26;97543.72;;;1.31;40.84
39729;BME280;25402;42.004;23.088;2023-11-19T04:37:53;97517.72;;;0.91;41.24
39729;BME280;25402;42.004;23.088;2023-11-19T04:40:23;97559.41;;;1.24;41.31
39729;BME280;25402;42.004;23.088;2023-11-19T04:42:50;97562.84;;;1.04;41.47
39729;BME280;25402;42.004;23.088;2023-11-19T04:45:17;97556.97;;;1.21;41.28
39729;BME280;25402;42.004;23.088;2023-11-19T04:47:45;97569.63;;;1.08;41.52
39729;BME280;25402;42.004;23.088;2023-11-19T04:50:12;97530.75;;;0.94;41.17
39729;BME280;25402;42.004;23.088;2023-11-19T04:52:39;97572.00;;;1.22;41.29
39729;BME280;25402;42.004;23.088;2023-11-19T04:55:08;97565.84;;;1.11;41.34
39729;BME280;25402;42.004;23.088;2023-11-19T04:57:38;97567.34;;;1.35;41.13
39729;BME280;25402;42.004;23.088;2023-11-19T05:00:06;97568.59;;;1.52;40.79
39729;BME280;25402;42.004;23.088;2023-11-19T05:02:33;97547.44;;;1.40;41.02
39729;BME280;25402;42.004;23.088;2023-11-19T05:05:01;97559.94;;;1.60;40.60
39729;BME280;25402;42.004;23.088;2023-11-19T05:07:30;97550.66;;;1.54;40.47
39729;BME280;25402;42.004;23.088;2023-11-19T05:09:57;97557.25;;;1.71;40.62
39729;BME280;25402;42.004;23.088;2023-11-19T05:12:24;97570.34;;;1.63;40.41
39729;BME280;25402;42.004;23.088;2023-11-19T05:14:51;97563.91;;;1.65;40.57
39729;BME280;25402;42.004;23.088;2023-11-19T05:17:18;97569.34;;;1.75;40.27
39729;BME280;25402;42.004;23.088;2023-11-19T05:19:45;97568.78;;;1.72;40.35
39729;BME280;25402;42.004;23.088;2023-11-19T05:22:14;97593.03;;;1.68;40.54
39729;BME280;25402;42.004;23.088;2023-11-19T05:24:41;97596.97;;;1.74;40.46
39729;BME280;25402;42.004;23.088;2023-11-19T05:27:08;97587.97;;;1.86;40.38
39729;BME280;25402;42.004;23.088;2023-11-19T05:29:36;97599.44;;;1.66;40.45
39729;BME280;25402;42.004;23.088;2023-11-19T05:32:04;97582.97;;;1.61;40.63
39729;BME280;25402;42.004;23.088;2023-11-19T05:34:32;97573.81;;;1.75;39.94
39729;BME280;25402;42.004;23.088;2023-11-19T05:37:00;97603.31;;;1.62;40.40
39729;BME280;25402;42.004;23.088;2023-11-19T05:39:28;97590.78;;;1.53;40.53
39729;BME280;25402;42.004;23.088;2023-11-19T05:41:55;97588.84;;;1.44;40.60
39729;BME280;25402;42.004;23.088;2023-11-19T05:44:22;97589.81;;;1.43;40.92
39729;BME280;25402;42.004;23.088;2023-11-19T05:46:49;97571.88;;;1.45;40.91
39729;BME280;25402;42.004;23.088;2023-11-19T05:49:16;97592.84;;;1.49;40.83
39729;BME280;25402;42.004;23.088;2023-11-19T05:51:43;97599.63;;;1.53;40.86
39729;BME280;25402;42.004;23.088;2023-11-19T05:54:11;97588.47;;;1.48;41.05
39729;BME280;25402;42.004;23.088;2023-11-19T05:56:40;97592.91;;;1.59;40.81
39729;BME280;25402;42.004;23.088;2023-11-19T05:59:07;97588.03;;;1.64;40.55
39729;BME280;25402;42.004;23.088;2023-11-19T06:01:40;97578.97;;;1.34;40.88
39729;BME280;25402;42.004;23.088;2023-11-19T06:04:08;97596.53;;;1.37;40.98
39729;BME280;25402;42.004;23.088;2023-11-19T06:06:35;97605.66;;;1.55;40.42
39729;BME280;25402;42.004;23.088;2023-11-19T06:09:02;97594.25;;;1.32;40.81
39729;BME280;25402;42.004;23.088;2023-11-19T06:11:32;97602.41;;;1.52;40.72
39729;BME280;25402;42.004;23.088;2023-11-19T06:14:00;97601.25;;;1.65;40.27
39729;BME280;25402;42.004;23.088;2023-11-19T06:16:27;97613.56;;;1.46;40.39
39729;BME280;25402;42.004;23.088;2023-11-19T06:18:54;97635.31;;;1.41;40.79
39729;BME280;25402;42.004;23.088;2023-11-19T06:21:21;97636.69;;;1.24;41.02
39729;BME280;25402;42.004;23.088;2023-11-19T06:23:48;97642.94;;;1.34;40.84
39729;BME280;25402;42.004;23.088;2023-11-19T06:26:17;97630.22;;;1.38;40.77
39729;BME280;25402;42.004;23.088;2023-11-19T06:28:44;97633.63;;;1.29;40.73
39729;BME280;25402;42.004;23.088;2023-11-19T06:31:13;97624.34;;;1.44;40.85
39729;BME280;25402;42.004;23.088;2023-11-19T06:33:41;97623.88;;;1.50;40.41
39729;BME280;25402;42.004;23.088;2023-11-19T06:36:09;97625.19;;;1.56;40.76
39729;BME280;25402;42.004;23.088;2023-11-19T06:38:36;97641.75;;;1.71;40.36
39729;BME280;25402;42.004;23.088;2023-11-19T06:41:07;97638.91;;;1.83;40.19
39729;BME280;25402;42.004;23.088;2023-11-19T06:43:34;97631.94;;;1.92;39.85
39729;BME280;25402;42.004;23.088;2023-11-19T06:46:01;97652.97;;;1.85;40.18
39729;BME280;25402;42.004;23.088;2023-11-19T06:48:32;97638.97;;;1.72;40.24
39729;BME280;25402;42.004;23.088;2023-11-19T06:51:00;97640.13;;;1.79;40.49
39729;BME280;25402;42.004;23.088;2023-11-19T06:53:27;97646.38;;;1.89;40.14
39729;BME280;25402;42.004;23.088;2023-11-19T06:55:55;97622.69;;;1.96;39.94
39729;BME280;25402;42.004;23.088;2023-11-19T06:58:22;97624.78;;;1.92;39.98
39729;BME280;25402;42.004;23.088;2023-11-19T07:00:49;97640.03;;;2.01;39.93
39729;BME280;25402;42.004;23.088;2023-11-19T07:03:16;97629.09;;;2.04;39.90
39729;BME280;25402;42.004;23.088;2023-11-19T07:05:45;97632.75;;;2.03;39.90
39729;BME280;25402;42.004;23.088;2023-11-19T07:08:12;97636.78;;;2.19;39.69
39729;BME280;25402;42.004;23.088;2023-11-19T07:10:39;97642.38;;;2.16;40.12
39729;BME280;25402;42.004;23.088;2023-11-19T07:13:06;97642.16;;;2.08;40.14
39729;BME280;25402;42.004;23.088;2023-11-19T07:15:33;97652.19;;;2.36;39.80
39729;BME280;25402;42.004;23.088;2023-11-19T07:18:00;97653.81;;;2.27;39.84
39729;BME280;25402;42.004;23.088;2023-11-19T07:20:27;97664.94;;;2.32;39.62
39729;BME280;25402;42.004;23.088;2023-11-19T07:22:55;97666.69;;;2.43;39.60
39729;BME280;25402;42.004;23.088;2023-11-19T07:25:22;97665.38;;;2.58;39.33
39729;BME280;25402;42.004;23.088;2023-11-19T07:27:51;97666.59;;;2.54;39.25
39729;BME280;25402;42.004;23.088;2023-11-19T07:30:19;97677.28;;;2.54;38.97
39729;BME280;25402;42.004;23.088;2023-11-19T07:32:46;97658.22;;;2.38;39.08
39729;BME280;25402;42.004;23.088;2023-11-19T07:35:13;97655.63;;;2.27;38.72
39729;BME280;25402;42.004;23.088;2023-11-19T07:37:41;97659.81;;;2.20;38.70
39729;BME280;25402;42.004;23.088;2023-11-19T07:40:12;97648.28;;;2.19;38.65
39729;BME280;25402;42.004;23.088;2023-11-19T07:42:39;97672.25;;;1.89;39.30
39729;BME280;25402;42.004;23.088;2023-11-19T07:45:07;97666.09;;;1.66;39.71
39729;BME280;25402;42.004;23.088;2023-11-19T07:47:34;97677.34;;;1.38;40.05
39729;BME280;25402;42.004;23.088;2023-11-19T07:50:01;97674.00;;;1.99;39.36
39729;BME280;25402;42.004;23.088;2023-11-19T07:52:29;97685.81;;;2.07;39.11
39729;BME280;25402;42.004;23.088;2023-11-19T07:54:56;97696.13;;;2.11;38.81
39729;BME280;25402;42.004;23.088;2023-11-19T07:57:24;97703.88;;;2.14;38.46
39729;BME280;25402;42.004;23.088;2023-11-19T07:59:53;97682.66;;;2.13;38.52
39729;BME280;25402;42.004;23.088;2023-11-19T08:02:20;97660.19;;;2.36;38.02
39729;BME280;25402;42.004;23.088;2023-11-19T08:04:47;97670.59;;;2.39;38.58
39729;BME280;25402;42.004;23.088;2023-11-19T08:07:17;97638.97;;;2.14;38.38
39729;BME280;25402;42.004;23.088;2023-11-19T08:09:44;97663.50;;;2.08;38.12
39729;BME280;25402;42.004;23.088;2023-11-19T08:12:11;97665.53;;;2.15;38.12
39729;BME280;25402;42.004;23.088;2023-11-19T08:14:41;97687.47;;;1.98;38.74
39729;BME280;25402;42.004;23.088;2023-11-19T08:17:09;97686.38;;;1.89;38.63
39729;BME280;25402;42.004;23.088;2023-11-19T08:19:36;97688.38;;;1.76;38.34
39729;BME280;25402;42.004;23.088;2023-11-19T08:22:03;97679.16;;;1.80;38.31
39729;BME280;25402;42.004;23.088;2023-11-19T08:24:30;97692.03;;;1.75;37.79
39729;BME280;25402;42.004;23.088;2023-11-19T08:26:57;97705.03;;;1.68;38.41
39729;BME280;25402;42.004;23.088;2023-11-19T08:29:24;97705.91;;;1.69;38.29
39729;BME280;25402;42.004;23.088;2023-11-19T08:31:54;97713.13;;;1.78;38.60
39729;BME280;25402;42.004;23.088;2023-11-19T08:34:21;97718.38;;;2.00;38.05
39729;BME280;25402;42.004;23.088;2023-11-19T08:36:50;97726.69;;;1.86;37.93
39729;BME280;25402;42.004;23.088;2023-11-19T08:39:18;97710.75;;;1.96;37.69
39729;BME280;25402;42.004;23.088;2023-11-19T08:41:46;97714.97;;;1.66;38.14
39729;BME280;25402;42.004;23.088;2023-11-19T08:44:13;97699.59;;;2.02;37.68
39729;BME280;25402;42.004;23.088;2023-11-19T08:46:47;97705.19;;;2.40;37.29
39729;BME280;25402;42.004;23.088;2023-11-19T08:49:15;97707.50;;;2.75;36.70
39729;BME280;25402;42.004;23.088;2023-11-19T08:51:42;97699.13;;;2.90;36.35
39729;BME280;25402;42.004;23.088;2023-11-19T08:54:10;97709.94;;;2.37;36.88
39729;BME280;25402;42.004;23.088;2023-11-19T08:56:38;97721.53;;;2.47;36.82
39729;BME280;25402;42.004;23.088;2023-11-19T08:59:05;97724.97;;;2.59;36.56
39729;BME280;25402;42.004;23.088;2023-11-19T09:01:32;97727.63;;;2.80;36.60
39729;BME280;25402;42.004;23.088;2023-11-19T09:03:59;97728.25;;;2.93;36.11
39729;BME280;25402;42.004;23.088;2023-11-19T09:06:27;97728.25;;;2.62;36.39
39729;BME280;25402;42.004;23.088;2023-11-19T09:08:54;97729.84;;;2.54;36.69
39729;BME280;25402;42.004;23.088;2023-11-19T09:11:26;97744.25;;;2.62;36.38
39729;BME280;25402;42.004;23.088;2023-11-19T09:13:53;97724.00;;;2.60;36.76
39729;BME280;25402;42.004;23.088;2023-11-19T09:16:20;97731.31;;;2.88;36.18
39729;BME280;25402;42.004;23.088;2023-11-19T09:18:47;97720.94;;;3.25;35.30
39729;BME280;25402;42.004;23.088;2023-11-19T09:21:14;97721.03;;;3.44;34.71
39729;BME280;25402;42.004;23.088;2023-11-19T09:23:42;97725.22;;;3.07;34.86
39729;BME280;25402;42.004;23.088;2023-11-19T09:26:10;97717.97;;;3.59;34.46
39729;BME280;25402;42.004;23.088;2023-11-19T09:28:37;97714.00;;;3.53;34.38
39729;BME280;25402;42.004;23.088;2023-11-19T09:31:13;97708.53;;;3.15;34.58
39729;BME280;25402;42.004;23.088;2023-11-19T09:33:40;97713.78;;;3.26;34.91
39729;BME280;25402;42.004;23.088;2023-11-19T09:36:08;97668.13;;;3.18;35.02
39729;BME280;25402;42.004;23.088;2023-11-19T09:38:36;97665.66;;;3.35;34.93
39729;BME280;25402;42.004;23.088;2023-11-19T09:41:05;97662.06;;;3.56;34.74
39729;BME280;25402;42.004;23.088;2023-11-19T09:43:34;97679.31;;;3.32;34.57
39729;BME280;25402;42.004;23.088;2023-11-19T09:46:04;97683.47;;;3.56;33.97
39729;BME280;25402;42.004;23.088;2023-11-19T09:48:33;97690.53;;;3.86;33.46
39729;BME280;25402;42.004;23.088;2023-11-19T09:51:03;97680.25;;;3.71;33.68
39729;BME280;25402;42.004;23.088;2023-11-19T09:53:31;97660.66;;;3.61;33.62
39729;BME280;25402;42.004;23.088;2023-11-19T09:56:00;97684.03;;;3.98;32.75
39729;BME280;25402;42.004;23.088;2023-11-19T09:58:29;97653.47;;;4.00;32.69
39729;BME280;25402;42.004;23.088;2023-11-19T10:00:57;97651.34;;;4.13;32.36
39729;BME280;25402;42.004;23.088;2023-11-19T10:03:25;97640.94;;;3.91;32.76
39729;BME280;25402;42.004;23.088;2023-11-19T10:05:54;97642.91;;;3.60;33.20
39729;BME280;25402;42.004;23.088;2023-11-19T10:08:22;97652.75;;;3.79;33.10
39729;BME280;25402;42.004;23.088;2023-11-19T10:10:49;97648.00;;;3.92;32.63
39729;BME280;25402;42.004;23.088;2023-11-19T10:13:17;97663.03;;;4.22;32.91
39729;BME280;25402;42.004;23.088;2023-11-19T10:15:46;97646.97;;;4.22;32.26
39729;BME280;25402;42.004;23.088;2023-11-19T10:18:14;97649.06;;;4.38;32.20
39729;BME280;25402;42.004;23.088;2023-11-19T10:20:41;97645.91;;;4.52;32.19
39729;BME280;25402;42.004;23.088;2023-11-19T10:23:09;97642.53;;;4.50;32.07
39729;BME280;25402;42.004;23.088;2023-11-19T10:25:37;97642.50;;;4.69;31.11
39729;BME280;25402;42.004;23.088;2023-11-19T10:28:04;97634.22;;;4.90;31.76
39729;BME280;25402;42.004;23.088;2023-11-19T10:30:31;97633.16;;;5.10;31.46
39729;BME280;25402;42.004;23.088;2023-11-19T10:33:16;97634.97;;;5.10;31.23
39729;BME280;25402;42.004;23.088;2023-11-19T10:35:52;97618.28;;;4.89;31.66
39729;BME280;25402;42.004;23.088;2023-11-19T10:38:20;97616.63;;;4.88;31.49
39729;BME280;25402;42.004;23.088;2023-11-19T10:40:47;97624.25;;;5.10;31.46
39729;BME280;25402;42.004;23.088;2023-11-19T10:43:15;97622.56;;;5.09;31.24
39729;BME280;25402;42.004;23.088;2023-11-19T10:45:42;97616.84;;;5.22;31.32
39729;BME280;25402;42.004;23.088;2023-11-19T10:48:11;97625.94;;;5.56;31.20
39729;BME280;25402;42.004;23.088;2023-11-19T10:50:39;97631.56;;;5.17;31.08
39729;BME280;25402;42.004;23.088;2023-11-19T10:53:08;97630.50;;;5.28;31.32
39729;BME280;25402;42.004;23.088;2023-11-19T10:55:36;97625.94;;;5.56;31.66
39729;BME280;25402;42.004;23.088;2023-11-19T10:58:05;97625.56;;;5.69;30.55
39729;BME280;25402;42.004;23.088;2023-11-19T11:00:38;97619.88;;;5.72;30.47
39729;BME280;25402;42.004;23.088;2023-11-19T11:03:15;97617.13;;;5.99;30.75
39729;BME280;25402;42.004;23.088;2023-11-19T11:05:43;97624.22;;;5.37;31.13
39729;BME280;25402;42.004;23.088;2023-11-19T11:08:13;97618.34;;;5.69;31.20
39729;BME280;25402;42.004;23.088;2023-11-19T11:10:43;97611.59;;;5.47;31.24
39729;BME280;25402;42.004;23.088;2023-11-19T11:13:11;97608.41;;;5.62;30.85
39729;BME280;25402;42.004;23.088;2023-11-19T11:15:40;97593.75;;;5.92;30.94
39729;BME280;25402;42.004;23.088;2023-11-19T11:18:08;97589.78;;;6.21;30.45
39729;BME280;25402;42.004;23.088;2023-11-19T11:20:37;97587.97;;;6.04;30.58
39729;BME280;25402;42.004;23.088;2023-11-19T11:26:39;97571.50;;;6.25;30.29
39729;BME280;25402;42.004;23.088;2023-11-19T11:29:16;97586.28;;;6.03;29.98
39729;BME280;25402;42.004;23.088;2023-11-19T11:31:54;97584.06;;;5.99;30.38
39729;BME280;25402;42.004;23.088;2023-11-19T11:34:49;97556.81;;;6.11;30.20
39729;BME280;25402;42.004;23.088;2023-11-19T11:37:26;97580.44;;;6.34;29.96
39729;BME280;25402;42.004;23.088;2023-11-19T11:39:57;97574.81;;;6.19;29.98
39729;BME280;25402;42.004;23.088;2023-11-19T11:42:35;97570.97;;;6.21;30.16
39729;BME280;25402;42.004;23.088;2023-11-19T11:45:04;97566.41;;;6.40;30.06
39729;BME280;25402;42.004;23.088;2023-11-19T11:48:11;97569.78;;;6.42;29.88
39729;BME280;25402;42.004;23.088;2023-11-19T11:50:55;97568.78;;;6.43;29.95
39729;BME280;25402;42.004;23.088;2023-11-19T11:53:25;97573.16;;;6.44;29.79
39729;BME280;25402;42.004;23.088;2023-11-19T11:55:56;97550.06;;;6.07;30.31
39729;BME280;25402;42.004;23.088;2023-11-19T11:58:32;97546.38;;;6.08;30.46
39729;BME280;25402;42.004;23.088;2023-11-19T12:01:04;97545.66;;;5.63;31.23
39729;BME280;25402;42.004;23.088;2023-11-19T12:03:34;97547.81;;;5.41;31.29
39729;BME280;25402;42.004;23.088;2023-11-19T12:06:02;97542.84;;;5.64;31.65
39729;BME280;25402;42.004;23.088;2023-11-19T12:08:31;97548.72;;;5.68;30.94
39729;BME280;25402;42.004;23.088;2023-11-19T12:11:01;97531.69;;;5.77;30.65
39729;BME280;25402;42.004;23.088;2023-11-19T12:13:53;97539.75;;;5.95;30.43
39729;BME280;25402;42.004;23.088;2023-11-19T12:16:21;97531.75;;;5.67;31.00
39729;BME280;25402;42.004;23.088;2023-11-19T12:18:48;97524.53;;;5.85;30.78
39729;BME280;25402;42.004;23.088;2023-11-19T12:21:29;97528.03;;;6.04;30.43
39729;BME280;25402;42.004;23.088;2023-11-19T12:23:58;97534.97;;;5.88;30.49
39729;BME280;25402;42.004;23.088;2023-11-19T12:26:34;97531.38;;;5.98;30.79
39729;BME280;25402;42.004;23.088;2023-11-19T12:29:01;97521.00;;;6.03;30.03
39729;BME280;25402;42.004;23.088;2023-11-19T12:31:32;97527.63;;;6.16;30.42
39729;BME280;25402;42.004;23.088;2023-11-19T12:34:11;97520.44;;;5.99;30.40
39729;BME280;25402;42.004;23.088;2023-11-19T12:36:41;97531.69;;;5.95;30.68
39729;BME280;25402;42.004;23.088;2023-11-19T12:39:09;97530.31;;;6.42;30.22
39729;BME280;25402;42.004;23.088;2023-11-19T12:41:52;97522.22;;;6.76;29.70
39729;BME280;25402;42.004;23.088;2023-11-19T12:44:19;97527.63;;;6.92;29.27
39729;BME280;25402;42.004;23.088;2023-11-19T12:46:46;97515.38;;;6.48;29.59
39729;BME280;25402;42.004;23.088;2023-11-19T12:49:25;97491.25;;;6.30;29.95
39729;BME280;25402;42.004;23.088;2023-11-19T12:51:52;97488.50;;;6.48;29.91
39729;BME280;25402;42.004;23.088;2023-11-19T12:54:32;97485.47;;;6.51;29.62
39729;BME280;25402;42.004;23.088;2023-11-19T12:56:59;97485.00;;;6.55;29.58
39729;BME280;25402;42.004;23.088;2023-11-19T12:59:26;97480.59;;;6.88;29.31
39729;BME280;25402;42.004;23.088;2023-11-19T13:01:54;97471.16;;;6.84;29.26
39729;BME280;25402;42.004;23.088;2023-11-19T13:04:22;97465.13;;;6.90;29.41
39729;BME280;25402;42.004;23.088;2023-11-19T13:06:50;97482.81;;;7.09;28.92
39729;BME280;25402;42.004;23.088;2023-11-19T13:09:24;97473.28;;;7.31;28.62
39729;BME280;25402;42.004;23.088;2023-11-19T13:11:52;97477.84;;;6.80;28.82